Time;durP1;ratioP1;P1;durP2;ratioP2;P2;SDS_P1;SDS_P2;PMS_P1;PMS_P2;Temp;Humidity;BMP_temperature;BMP_pressure;BME280_temperature;BME280_humidity;BME280_pressure;Samples;Min_cycle;Max_cycle;Signal;HPM_P1;HPM_P2
2022/08/03 00:02:06;;;;;;;5.57;4.80;;;;;;;21.47;69.84;156885.75;5049140;28;20563;-79
2022/08/03 00:04:33;;;;;;;4.97;4.50;;;;;;;21.38;70.38;156862.28;5041070;28;20436;-79
2022/08/03 00:07:00;;;;;;;5.03;4.63;;;;;;;21.30;70.25;156840.09;5048546;28;20502;-78
2022/08/03 00:09:27;;;;;;;5.30;4.83;;;;;;;21.35;70.87;156854.44;5032980;28;20468;-79
2022/08/03 00:11:55;;;;;;;5.37;4.87;;;;;;;21.36;70.35;156857.09;5047411;28;20457;-79
2022/08/03 00:14:21;;;;;;;5.10;4.70;;;;;;;21.34;70.47;156850.56;5046436;28;20548;-79
2022/08/03 00:16:51;;;;;;;5.20;4.70;;;;;;;21.32;70.69;156846.63;5033377;28;20476;-79
2022/08/03 00:19:18;;;;;;;5.47;4.47;;;;;;;21.32;71.26;156846.63;5033496;28;20981;-79
2022/08/03 00:21:44;;;;;;;5.33;4.80;;;;;;;21.27;71.97;156833.56;5035353;28;20536;-78
2022/08/03 00:24:12;;;;;;;5.20;4.77;;;;;;;21.26;72.19;156830.94;5051272;28;20442;-79
2022/08/03 00:26:39;;;;;;;4.90;4.50;;;;;;;21.27;72.15;156833.56;5067715;28;20455;-79
2022/08/03 00:29:07;;;;;;;5.33;4.90;;;;;;;21.24;72.90;156825.72;5042756;28;20428;-79
2022/08/03 00:31:33;;;;;;;5.20;4.80;;;;;;;21.26;72.48;156830.94;5045065;22;20584;-88
2022/08/03 00:34:00;;;;;;;5.43;5.03;;;;;;;21.28;72.27;156836.19;4991936;28;20458;-88
2022/08/03 00:36:28;;;;;;;6.57;5.40;;;;;;;21.26;73.11;156829.66;4993931;28;20422;-87
2022/08/03 00:38:55;;;;;;;5.30;4.90;;;;;;;21.20;73.39;156815.31;4992272;28;20496;-88
2022/08/03 00:41:22;;;;;;;5.37;4.97;;;;;;;21.18;73.66;156811.38;4990784;28;20461;-88
2022/08/03 00:43:49;;;;;;;5.33;4.93;;;;;;;21.19;73.15;156814.00;4991473;28;20512;-88
2022/08/03 00:46:21;;;;;;;5.43;4.93;;;;;;;21.18;73.21;156811.38;4991816;28;20457;-88
2022/08/03 00:48:47;;;;;;;5.57;5.07;;;;;;;21.15;73.37;156802.25;4991206;28;20437;-88
2022/08/03 00:51:14;;;;;;;6.20;5.37;;;;;;;21.13;73.62;156797.00;4990769;28;20868;-88
2022/08/03 00:53:41;;;;;;;5.47;4.97;;;;;;;21.12;74.25;156794.44;4992155;28;20485;-87
2022/08/03 00:56:08;;;;;;;6.70;5.20;;;;;;;21.13;73.82;156797.00;4994808;28;20445;-88
2022/08/03 00:58:35;;;;;;;5.63;4.30;;;;;;;21.12;74.08;156794.44;4992174;28;20433;-88
2022/08/03 01:01:03;;;;;;;5.20;4.80;;;;;;;21.14;73.87;156799.63;4991587;28;20544;-88
2022/08/03 01:03:31;;;;;;;5.83;5.23;;;;;;;21.11;74.40;156791.81;4974744;28;20466;-88
2022/08/03 01:06:01;;;;;;;5.80;5.30;;;;;;;21.07;74.44;156781.38;4992391;28;20442;-87
2022/08/03 01:08:32;;;;;;;5.73;5.23;;;;;;;21.06;74.64;156778.69;4990906;28;20426;-88
2022/08/03 01:11:06;;;;;;;5.40;4.97;;;;;;;21.01;75.40;156766.97;4990595;28;20457;-88
2022/08/03 01:13:39;;;;;;;5.60;5.20;;;;;;;20.96;75.70;156752.63;5007630;28;20434;-88
2022/08/03 01:16:09;;;;;;;11.53;5.27;;;;;;;20.94;75.91;156747.41;4993602;28;20437;-88
2022/08/03 01:18:40;;;;;;;5.50;5.00;;;;;;;20.91;75.67;156739.56;4990675;28;20476;-88
2022/08/03 01:21:11;;;;;;;6.07;5.47;;;;;;;20.84;76.58;156721.28;4993147;28;20488;-88
2022/08/03 01:23:49;;;;;;;5.67;5.17;;;;;;;20.82;76.49;156716.06;4989957;28;20512;-88
2022/08/03 01:26:34;;;;;;;5.73;5.23;;;;;;;20.85;76.23;156725.22;4975182;28;20457;-88
2022/08/03 01:29:17;;;;;;;5.20;4.70;;;;;;;20.82;76.72;156716.06;4989052;28;20986;-87
2022/08/03 01:31:51;;;;;;;5.37;4.97;;;;;;;20.80;76.34;156710.84;4972079;28;20478;-87
2022/08/03 01:34:20;;;;;;;5.57;5.00;;;;;;;20.79;76.54;156708.22;4990758;28;20499;-87
2022/08/03 01:36:50;;;;;;;5.90;5.40;;;;;;;20.78;76.41;156705.66;4991681;28;20875;-87
2022/08/03 01:39:17;;;;;;;5.90;5.50;;;;;;;20.75;76.88;156697.81;4990177;28;20540;-87
2022/08/03 01:41:48;;;;;;;5.90;5.40;;;;;;;20.69;77.10;156683.47;4990041;28;20533;-87
2022/08/03 01:44:15;;;;;;;6.10;5.60;;;;;;;20.63;77.15;156669.09;4974466;28;20442;-88
2022/08/03 01:46:43;;;;;;;6.10;5.60;;;;;;;20.62;77.23;156666.47;4990592;28;20488;-87
2022/08/03 01:49:12;;;;;;;5.70;5.20;;;;;;;20.60;77.31;156659.94;4973432;28;20457;-87
2022/08/03 01:51:42;;;;;;;5.83;5.33;;;;;;;20.53;77.67;156643.03;4990777;28;20542;-87
2022/08/03 01:54:10;;;;;;;6.10;5.50;;;;;;;20.46;78.22;156624.78;4992211;28;20488;-87
2022/08/03 01:56:38;;;;;;;6.33;5.73;;;;;;;20.45;78.01;156622.16;4991098;28;20541;-87
2022/08/03 01:59:07;;;;;;;5.43;5.03;;;;;;;20.43;78.43;156616.94;4989657;28;20519;-87
2022/08/03 02:01:34;;;;;;;5.57;5.17;;;;;;;20.41;78.53;156610.44;4989992;28;20516;-87
2022/08/03 02:04:01;;;;;;;6.07;5.50;;;;;;;20.38;79.18;156602.59;5006389;28;20479;-87
2022/08/03 02:06:31;;;;;;;6.37;5.83;;;;;;;20.37;79.39;156601.28;4975467;28;20496;-87
2022/08/03 02:08:59;;;;;;;5.73;5.23;;;;;;;20.38;78.78;156603.91;4989745;28;20458;-87
2022/08/03 02:11:34;;;;;;;5.80;5.30;;;;;;;20.32;78.73;156588.25;4989956;28;20536;-88
2022/08/03 02:14:02;;;;;;;5.80;5.30;;;;;;;20.30;78.69;156583.03;4985238;28;20436;-88
2022/08/03 02:16:31;;;;;;;5.10;4.70;;;;;;;20.27;78.99;156573.88;4973611;28;20457;-88
2022/08/03 02:18:58;;;;;;;5.60;5.10;;;;;;;20.24;79.06;156567.38;4988492;28;20453;-88
2022/08/03 02:21:25;;;;;;;6.03;5.43;;;;;;;20.30;78.79;156581.72;4990470;28;20955;-88
2022/08/03 02:23:53;;;;;;;7.10;6.50;;;;;;;20.37;80.21;156601.28;4991270;28;20856;-88
2022/08/03 02:26:20;;;;;;;7.10;6.50;;;;;;;20.30;80.32;156581.72;4990104;28;20453;-88
2022/08/03 02:28:49;;;;;;;7.83;6.50;;;;;;;20.27;81.19;156575.19;4990055;28;20440;-88
2022/08/03 02:31:19;;;;;;;7.20;6.50;;;;;;;20.18;80.98;156551.66;4989341;28;20481;-88
2022/08/03 02:33:49;;;;;;;5.93;5.43;;;;;;;20.13;81.06;156538.63;4979111;28;20775;-88
2022/08/03 02:36:18;;;;;;;7.27;6.57;;;;;;;20.17;81.55;156549.06;5011330;28;20456;-87
2022/08/03 02:38:49;;;;;;;6.70;6.00;;;;;;;20.08;81.52;156525.59;4994057;28;20975;-87
2022/08/03 02:41:21;;;;;;;6.33;5.83;;;;;;;20.04;81.99;156516.44;4978556;28;20528;-87
2022/08/03 02:43:50;;;;;;;7.33;6.63;;;;;;;20.01;82.32;156508.59;4995955;28;20838;-87
2022/08/03 02:46:18;;;;;;;7.60;7.00;;;;;;;19.99;82.98;156502.09;4977487;28;20457;-88
2022/08/03 02:48:46;;;;;;;6.80;6.20;;;;;;;19.92;83.44;156485.16;4977287;28;20445;-87
2022/08/03 02:51:14;;;;;;;6.50;6.00;;;;;;;19.84;84.11;156463.00;4994647;28;20438;-87
2022/08/03 02:53:41;;;;;;;6.70;6.10;;;;;;;19.85;83.90;156465.63;4977353;28;20469;-88
2022/08/03 02:56:08;;;;;;;7.23;6.63;;;;;;;19.81;84.57;156455.16;4992421;28;20680;-87
2022/08/03 02:58:37;;;;;;;7.60;6.90;;;;;;;19.78;84.63;156447.31;4993958;28;20449;-87
2022/08/03 03:01:04;;;;;;;7.43;6.73;;;;;;;19.75;84.80;156439.56;4994013;28;20445;-87
2022/08/03 03:03:31;;;;;;;7.93;7.13;;;;;;;19.84;85.28;156463.00;4994135;28;20508;-87
2022/08/03 03:05:58;;;;;;;7.77;7.10;;;;;;;19.84;85.16;156463.00;4992603;28;20564;-87
2022/08/03 03:08:26;;;;;;;7.80;7.10;;;;;;;19.73;85.60;156435.59;4993575;28;20434;-87
2022/08/03 03:10:53;;;;;;;8.10;7.30;;;;;;;19.69;85.79;156425.19;4992983;28;20480;-87
2022/08/03 03:13:21;;;;;;;8.17;7.30;;;;;;;19.68;85.89;156421.25;4992912;28;20447;-87
2022/08/03 03:15:49;;;;;;;8.10;6.90;;;;;;;19.68;85.94;156422.56;4991158;28;20527;-87
2022/08/03 03:18:17;;;;;;;7.00;6.40;;;;;;;19.66;86.24;156416.06;4995618;28;20437;-87
2022/08/03 03:20:45;;;;;;;7.13;6.53;;;;;;;19.62;86.06;156406.91;4993218;28;20488;-87
2022/08/03 03:23:13;;;;;;;8.07;7.37;;;;;;;19.61;86.22;156403.03;4992583;28;20469;-87
2022/08/03 03:25:40;;;;;;;8.17;7.47;;;;;;;19.58;86.28;156395.19;4991567;28;20559;-87
2022/08/03 03:28:10;;;;;;;7.73;6.80;;;;;;;19.54;86.92;156386.06;4994069;28;20453;-86
2022/08/03 03:30:37;;;;;;;7.70;7.00;;;;;;;19.52;86.93;156379.53;4992216;28;20499;-87
2022/08/03 03:33:05;;;;;;;7.40;6.80;;;;;;;19.57;86.78;156393.88;4991590;28;20491;-87
2022/08/03 03:35:32;;;;;;;7.53;6.87;;;;;;;19.60;86.51;156401.72;4993272;28;20487;-87
2022/08/03 03:37:59;;;;;;;8.00;7.20;;;;;;;19.59;86.67;156397.81;4994826;28;20446;-87
2022/08/03 03:40:27;;;;;;;8.30;7.50;;;;;;;19.65;86.29;156413.44;4993084;28;20453;-87
2022/08/03 03:42:54;;;;;;;6.90;6.30;;;;;;;19.64;86.21;156410.84;4991826;28;20473;-87
2022/08/03 03:45:21;;;;;;;7.90;7.20;;;;;;;19.69;85.97;156425.19;4993289;28;20975;-87
2022/08/03 03:47:48;;;;;;;8.10;7.40;;;;;;;19.71;86.02;156429.09;4992484;28;20446;-87
2022/08/03 03:50:18;;;;;;;7.27;6.67;;;;;;;19.73;85.98;156434.28;4992512;28;20449;-87
2022/08/03 03:52:46;;;;;;;8.50;7.70;;;;;;;19.72;86.16;156431.72;4992981;28;20445;-87
2022/08/03 03:55:16;;;;;;;8.40;7.60;;;;;;;19.72;86.13;156431.72;4978228;28;20493;-87
2022/08/03 03:57:43;;;;;;;9.40;8.10;;;;;;;19.62;86.84;156405.66;4994484;28;20496;-87
2022/08/03 04:00:11;;;;;;;7.90;7.20;;;;;;;19.57;87.29;156392.56;4989733;28;20561;-87
2022/08/03 04:02:39;;;;;;;9.23;8.33;;;;;;;19.53;87.60;156383.47;4989990;28;20551;-87
2022/08/03 04:10:59;;;;;;;9.67;8.67;;;;;;;19.47;89.04;156366.50;4994553;28;20613;-87
2022/08/03 04:13:29;;;;;;;9.70;8.80;;;;;;;19.40;89.87;156350.91;4989458;28;20500;-86
2022/08/03 04:15:56;;;;;;;9.53;8.60;;;;;;;19.36;90.33;156340.41;4992086;28;20500;-86
2022/08/03 04:18:23;;;;;;;9.93;9.03;;;;;;;19.34;90.16;156335.19;4992595;28;20553;-86
2022/08/03 04:20:51;;;;;;;8.93;8.07;;;;;;;19.36;90.42;156339.09;4991909;28;20835;-86
2022/08/03 04:23:21;;;;;;;9.80;8.90;;;;;;;19.43;90.10;156358.69;4991576;28;20572;-87
2022/08/03 04:25:49;;;;;;;10.03;9.00;;;;;;;19.46;89.98;156365.19;4992152;28;20544;-87
2022/08/03 04:28:16;;;;;;;9.47;8.57;;;;;;;19.48;90.04;156369.13;4992182;28;20540;-86
2022/08/03 04:30:47;;;;;;;9.30;8.37;;;;;;;19.46;90.34;156363.94;4988993;28;20478;-87
2022/08/03 04:33:14;;;;;;;9.40;8.60;;;;;;;19.45;90.69;156362.63;4991306;28;20448;-87
2022/08/03 04:35:42;;;;;;;11.00;7.90;;;;;;;19.48;90.57;156369.13;4992377;28;20573;-87
2022/08/03 04:38:09;;;;;;;9.70;8.80;;;;;;;19.48;90.47;156369.13;4976033;28;20544;-86
2022/08/03 04:40:40;;;;;;;9.33;8.43;;;;;;;19.51;90.16;156378.28;4990892;28;20480;-87
2022/08/03 04:43:08;;;;;;;19.00;8.60;;;;;;;19.57;89.89;156392.56;4991228;28;20576;-87
2022/08/03 04:45:36;;;;;;;12.20;9.20;;;;;;;19.62;89.69;156406.91;4975097;28;20953;-87
2022/08/03 04:48:03;;;;;;;8.40;7.67;;;;;;;19.61;89.63;156404.34;4991172;28;20442;-87
2022/08/03 04:50:30;;;;;;;9.90;7.77;;;;;;;19.58;90.00;156395.19;4974413;28;20504;-87
2022/08/03 04:53:06;;;;;;;8.30;7.50;;;;;;;19.62;89.92;156405.66;4991601;28;20445;-87
2022/08/03 04:55:35;;;;;;;9.97;7.73;;;;;;;19.66;89.93;156416.06;4992167;28;20565;-87
2022/08/03 04:58:03;;;;;;;8.30;7.50;;;;;;;19.67;90.08;156419.94;4991917;28;20516;-87
2022/08/03 05:00:31;;;;;;;8.90;8.17;;;;;;;19.77;90.20;156444.75;4989518;28;20868;-86
2022/08/03 05:02:58;;;;;;;8.77;8.07;;;;;;;20.04;89.65;156516.44;4984785;28;20883;-86
2022/08/03 05:05:25;;;;;;;9.47;8.60;;;;;;;20.43;89.56;156615.63;4992735;28;20457;-86
2022/08/03 05:07:52;;;;;;;9.27;8.50;;;;;;;20.78;87.81;156706.97;4992489;28;20577;-86
2022/08/03 05:10:18;;;;;;;9.30;8.50;;;;;;;21.12;85.99;156795.75;4991545;28;20886;-86
2022/08/03 05:12:46;;;;;;;8.23;7.43;;;;;;;21.42;84.23;156872.72;4990602;28;20841;-85
2022/08/03 05:15:14;;;;;;;8.93;8.03;;;;;;;21.68;83.36;156940.59;4990895;28;20450;-85
2022/08/03 05:17:41;;;;;;;9.30;8.50;;;;;;;21.90;80.37;156995.47;4990859;28;20438;-85
2022/08/03 05:20:09;;;;;;;8.90;8.10;;;;;;;22.15;79.46;157060.78;4990179;28;20442;-85
2022/08/03 05:22:36;;;;;;;8.80;7.90;;;;;;;22.47;78.32;157143.06;4989964;28;20457;-86
2022/08/03 05:25:06;;;;;;;9.07;7.70;;;;;;;22.88;77.73;157251.53;4989768;28;20477;-86
2022/08/03 05:27:33;;;;;;;9.07;8.27;;;;;;;23.18;75.92;157327.34;4992185;28;20451;-86
2022/08/03 05:30:00;;;;;;;8.30;7.60;;;;;;;23.47;74.88;157404.50;4989572;28;20811;-85
2022/08/03 05:32:28;;;;;;;8.07;7.37;;;;;;;23.73;74.03;157471.16;4989663;28;20548;-86
2022/08/03 05:34:55;;;;;;;9.67;8.83;;;;;;;23.95;71.75;157528.69;4991344;28;20450;-86
2022/08/03 05:37:22;;;;;;;9.63;8.73;;;;;;;24.17;70.28;157586.25;4992491;28;20496;-86
2022/08/03 05:39:48;;;;;;;10.83;8.47;;;;;;;24.34;69.36;157629.44;4991345;28;20589;-86
2022/08/03 05:42:16;;;;;;;9.00;8.20;;;;;;;24.46;67.38;157659.53;4974568;28;20791;-86
2022/08/03 05:44:42;;;;;;;8.00;7.30;;;;;;;24.57;66.98;157688.31;4990181;28;20869;-86
2022/08/03 05:47:09;;;;;;;8.67;7.87;;;;;;;24.72;66.42;157727.53;4974337;28;20537;-86
2022/08/03 05:49:37;;;;;;;8.30;7.43;;;;;;;24.88;65.42;157769.47;4991246;28;20923;-86
2022/08/03 05:52:04;;;;;;;7.40;6.73;;;;;;;25.05;64.29;157813.91;4986752;28;20533;-86
2022/08/03 05:54:31;;;;;;;6.47;5.87;;;;;;;25.15;63.62;157840.09;4989295;28;20810;-86
2022/08/03 05:56:58;;;;;;;6.87;6.27;;;;;;;25.38;63.42;157900.31;4990561;28;20500;-86
2022/08/03 05:59:25;;;;;;;7.20;6.60;;;;;;;25.63;62.08;157963.19;4989176;28;20477;-87
2022/08/03 06:01:52;;;;;;;6.57;6.00;;;;;;;25.85;61.55;158020.78;4990922;28;20447;-87
2022/08/03 06:04:19;;;;;;;6.60;5.83;;;;;;;26.16;60.74;158101.97;4990108;28;20605;-87
2022/08/03 06:06:49;;;;;;;8.27;5.90;;;;;;;26.23;59.30;158120.34;4990314;28;20446;-87
2022/08/03 06:09:16;;;;;;;6.27;5.77;;;;;;;26.50;58.69;158191.03;4995728;28;20477;-87
2022/08/03 06:11:43;;;;;;;6.27;5.73;;;;;;;26.72;58.67;158246.03;4988176;28;20445;-87
2022/08/03 06:14:09;;;;;;;6.50;5.90;;;;;;;26.97;57.18;158311.63;4974139;28;20477;-87
2022/08/03 06:16:36;;;;;;;6.47;5.87;;;;;;;27.32;57.24;158403.34;4991037;28;20531;-87
2022/08/03 06:19:03;;;;;;;6.10;5.50;;;;;;;27.47;56.20;158442.69;4990414;28;20493;-87
2022/08/03 06:21:30;;;;;;;5.40;4.90;;;;;;;27.72;55.91;158506.94;4991570;28;20438;-87
2022/08/03 06:23:58;;;;;;;5.60;5.20;;;;;;;27.78;55.30;158522.63;4989633;28;20532;-87
2022/08/03 06:26:26;;;;;;;6.00;5.40;;;;;;;27.94;54.94;158564.56;4973559;28;20519;-87
2022/08/03 06:28:53;;;;;;;5.27;4.87;;;;;;;28.27;54.01;158649.84;4988901;28;20453;-87
2022/08/03 06:31:21;;;;;;;5.80;5.30;;;;;;;28.38;52.26;158678.72;5005843;28;20492;-87
2022/08/03 06:33:48;;;;;;;4.63;4.30;;;;;;;28.35;52.18;158672.16;4994456;28;20518;-88
2022/08/03 06:36:15;;;;;;;6.23;3.90;;;;;;;28.49;51.61;158706.25;4993152;28;20536;-87
2022/08/03 06:38:41;;;;;;;4.97;4.47;;;;;;;28.63;49.42;158742.97;4989473;28;20565;-88
2022/08/03 06:41:10;;;;;;;5.30;4.80;;;;;;;28.55;49.73;158723.28;4989881;28;20935;-88
2022/08/03 06:43:37;;;;;;;4.63;4.33;;;;;;;28.13;50.85;158613.13;4989302;28;20569;-87
2022/08/03 06:46:04;;;;;;;3.90;3.60;;;;;;;28.30;51.34;158657.72;4989832;28;20448;-87
2022/08/03 06:48:31;;;;;;;5.10;4.70;;;;;;;28.52;50.98;158714.06;4988406;28;20845;-83
2022/08/03 06:50:58;;;;;;;5.00;4.60;;;;;;;28.87;51.29;158807.25;4988040;28;20454;-82
2022/08/03 06:53:24;;;;;;;5.70;5.23;;;;;;;29.20;50.88;158891.22;4999721;28;20472;-82
2022/08/03 06:55:51;;;;;;;5.30;4.87;;;;;;;29.36;49.43;158933.25;4989664;28;20485;-82
2022/08/03 06:58:19;;;;;;;6.17;4.00;;;;;;;29.52;49.77;158975.25;4988835;28;20462;-83
2022/08/03 07:00:46;;;;;;;4.90;4.17;;;;;;;29.79;48.09;159046.13;4988295;28;20459;-82
2022/08/03 07:03:13;;;;;;;5.13;4.63;;;;;;;29.92;47.85;159078.94;4987946;28;20642;-83
2022/08/03 07:05:41;;;;;;;5.67;4.13;;;;;;;30.05;47.09;159114.38;4991018;28;20959;-82
2022/08/03 07:08:08;;;;;;;5.10;4.70;;;;;;;30.16;46.34;159143.25;4988247;28;20866;-83
2022/08/03 07:10:34;;;;;;;4.50;4.10;;;;;;;30.07;47.05;159119.66;4989635;28;20452;-83
2022/08/03 07:13:01;;;;;;;4.10;3.73;;;;;;;30.38;45.96;159198.44;4990933;28;20485;-83
2022/08/03 07:15:29;;;;;;;4.70;4.30;;;;;;;30.48;45.92;159224.69;4991665;28;20441;-83
2022/08/03 07:17:56;;;;;;;6.63;4.27;;;;;;;30.60;44.50;159256.22;5005027;28;20454;-82
2022/08/03 07:20:23;;;;;;;3.63;3.33;;;;;;;30.15;46.09;159140.66;4986560;28;22089;-83
2022/08/03 07:22:50;;;;;;;4.30;3.90;;;;;;;30.29;46.50;159176.06;4996294;28;20453;-82
2022/08/03 07:25:17;;;;;;;3.70;3.27;;;;;;;30.58;46.66;159251.00;5010743;28;20484;-83
2022/08/03 07:27:44;;;;;;;4.40;3.60;;;;;;;30.84;45.33;159319.25;4993364;28;20554;-83
2022/08/03 07:30:12;;;;;;;4.17;3.60;;;;;;;30.85;45.76;159321.84;4990188;28;21046;-83
2022/08/03 07:32:40;;;;;;;4.17;3.80;;;;;;;31.09;44.54;159384.94;4992127;28;20472;-83
2022/08/03 07:35:09;;;;;;;5.23;3.43;;;;;;;31.12;43.85;159392.84;4994719;28;20927;-83
2022/08/03 07:37:36;;;;;;;3.90;3.60;;;;;;;31.25;44.83;159425.66;4993267;28;20453;-83
2022/08/03 07:40:05;;;;;;;3.83;3.53;;;;;;;31.58;42.80;159511.13;4992329;28;20453;-83
2022/08/03 07:42:32;;;;;;;3.43;3.13;;;;;;;31.65;42.63;159530.81;4984577;28;20446;-83
2022/08/03 07:44:59;;;;;;;6.40;3.20;;;;;;;31.69;42.04;159540.03;4992664;28;20477;-83
2022/08/03 07:47:28;;;;;;;4.27;3.50;;;;;;;31.78;41.51;159564.97;4993820;28;20653;-83
2022/08/03 07:49:56;;;;;;;2.90;2.57;;;;;;;31.73;42.14;159550.53;4976163;28;20958;-83
2022/08/03 07:55:07;;;;;;;3.17;2.97;;;;;;;32.16;39.80;159663.59;4989808;28;20444;-83
2022/08/03 07:57:35;;;;;;;2.80;2.60;;;;;;;32.17;40.70;159664.91;4987394;28;20879;-83
2022/08/03 08:00:03;;;;;;;3.33;3.03;;;;;;;32.11;41.04;159649.13;4990089;28;20894;-83
2022/08/03 08:02:38;;;;;;;2.63;2.40;;;;;;;31.82;40.97;159575.50;5002653;28;20891;-83
2022/08/03 08:05:09;;;;;;;3.20;2.60;;;;;;;32.15;41.00;159660.94;4991852;28;20477;-83
2022/08/03 08:07:36;;;;;;;2.93;2.73;;;;;;;32.62;40.50;159781.94;4990933;28;20449;-83
2022/08/03 08:10:03;;;;;;;2.70;2.30;;;;;;;32.79;39.82;159826.59;4990453;28;20497;-83
2022/08/03 08:12:30;;;;;;;3.13;2.70;;;;;;;32.59;40.14;159775.38;4990848;28;20779;-83
2022/08/03 08:14:57;;;;;;;2.93;2.70;;;;;;;32.79;40.22;159827.94;4976045;28;20903;-83
2022/08/03 08:17:23;;;;;;;3.07;2.20;;;;;;;33.09;38.73;159905.56;4998093;28;20795;-83
2022/08/03 08:19:50;;;;;;;2.70;2.50;;;;;;;32.58;40.51;159771.41;5007737;28;20459;-83
2022/08/03 08:22:18;;;;;;;2.50;2.30;;;;;;;32.94;39.27;159867.34;4991736;28;20841;-81
2022/08/03 08:24:47;;;;;;;2.70;2.50;;;;;;;32.93;38.69;159864.75;4994041;28;20484;-84
2022/08/03 08:27:14;;;;;;;2.40;2.20;;;;;;;32.89;38.67;159852.91;4991935;28;20528;-84
2022/08/03 08:29:41;;;;;;;2.73;2.53;;;;;;;32.59;38.22;159774.06;4991676;28;20902;-84
2022/08/03 08:32:10;;;;;;;3.00;2.80;;;;;;;32.64;38.86;159787.19;5001674;28;20476;-83
2022/08/03 08:34:37;;;;;;;2.63;2.43;;;;;;;32.68;38.46;159797.69;4998745;28;20445;-83
2022/08/03 08:37:03;;;;;;;3.10;2.60;;;;;;;32.83;38.80;159838.44;4990915;28;20998;-83
2022/08/03 08:39:32;;;;;;;2.60;2.40;;;;;;;33.31;38.39;159963.38;4991669;28;20914;-83
2022/08/03 08:41:58;;;;;;;3.90;2.60;;;;;;;32.90;39.26;159856.88;4994820;28;20459;-83
2022/08/03 08:44:25;;;;;;;3.13;2.80;;;;;;;32.71;38.79;159805.56;4989372;28;20480;-83
2022/08/03 08:46:53;;;;;;;2.53;2.33;;;;;;;32.68;38.74;159797.69;4990208;28;20449;-83
2022/08/03 08:49:23;;;;;;;3.10;2.20;;;;;;;32.55;39.10;159763.50;4990278;28;20437;-83
2022/08/03 08:51:51;;;;;;;2.90;2.70;;;;;;;32.95;39.74;159870.00;4991745;28;20464;-83
2022/08/03 08:54:21;;;;;;;2.90;2.60;;;;;;;32.95;39.07;159868.69;4987778;28;20456;-83
2022/08/03 08:56:51;;;;;;;2.77;2.57;;;;;;;32.83;39.07;159838.44;4991695;28;20808;-83
2022/08/03 08:59:18;;;;;;;3.23;2.90;;;;;;;32.91;38.45;159859.47;4991580;28;20503;-83
2022/08/03 09:01:45;;;;;;;3.40;2.50;;;;;;;33.01;39.06;159884.47;4995306;28;20445;-83
2022/08/03 09:04:11;;;;;;;2.37;2.17;;;;;;;33.16;38.74;159922.63;4989885;28;20441;-83
2022/08/03 09:06:38;;;;;;;2.77;2.57;;;;;;;33.20;37.61;159934.50;4987030;28;20516;-83
2022/08/03 09:09:06;;;;;;;2.10;1.97;;;;;;;33.29;37.79;159958.16;4985985;28;20456;-83
2022/08/03 09:11:34;;;;;;;2.60;2.40;;;;;;;33.54;38.12;160023.94;5000649;28;20457;-83
2022/08/03 09:14:02;;;;;;;5.57;2.30;;;;;;;33.77;37.87;160081.81;4990551;28;20459;-83
2022/08/03 09:16:29;;;;;;;4.53;2.10;;;;;;;33.27;37.18;159951.56;4990785;28;20444;-83
2022/08/03 09:19:12;;;;;;;3.17;2.90;;;;;;;33.01;37.75;159885.81;4990252;28;20800;-83
2022/08/03 09:21:39;;;;;;;3.30;2.47;;;;;;;33.03;38.79;159891.03;4991799;28;20473;-83
2022/08/03 09:24:06;;;;;;;3.10;2.10;;;;;;;33.07;38.31;159900.25;4990628;28;20521;-83
2022/08/03 09:26:34;;;;;;;2.33;2.00;;;;;;;33.32;37.62;159966.03;4991445;28;20441;-83
2022/08/03 09:29:05;;;;;;;2.37;2.17;;;;;;;33.57;37.34;160030.56;4998246;28;20564;-83
2022/08/03 09:31:33;;;;;;;2.30;2.10;;;;;;;33.77;36.35;160081.81;4994626;28;20841;-83
2022/08/03 09:34:04;;;;;;;2.50;2.30;;;;;;;33.33;36.94;159968.69;4989656;28;20931;-83
2022/08/03 09:36:36;;;;;;;2.60;2.33;;;;;;;33.04;37.56;159893.69;4988063;28;20459;-83
2022/08/03 09:39:04;;;;;;;2.73;2.10;;;;;;;33.28;37.81;159955.50;4987611;28;20445;-83
2022/08/03 09:41:31;;;;;;;2.40;2.20;;;;;;;33.68;36.30;160059.44;4990444;28;20674;-83
2022/08/03 09:43:58;;;;;;;2.07;1.90;;;;;;;34.11;36.28;160171.31;5005783;28;20510;-83
2022/08/03 09:46:30;;;;;;;2.33;1.83;;;;;;;33.57;36.34;160031.81;4987233;28;20497;-84
2022/08/03 09:49:10;;;;;;;3.47;1.80;;;;;;;33.76;35.46;160079.22;4992104;28;20457;-84
2022/08/03 09:51:37;;;;;;;4.57;2.40;;;;;;;33.36;36.08;159975.25;4982276;28;20543;-84
2022/08/03 09:54:04;;;;;;;2.47;2.03;;;;;;;33.46;36.55;160002.88;4989023;28;20978;-84
2022/08/03 09:56:41;;;;;;;2.73;2.23;;;;;;;33.54;35.05;160023.94;4998528;28;20488;-84
2022/08/03 09:59:09;;;;;;;2.30;2.10;;;;;;;33.51;36.15;160016.03;4989979;28;20445;-84
2022/08/03 10:01:40;;;;;;;3.17;2.30;;;;;;;33.48;35.75;160006.81;4989914;28;20476;-84
2022/08/03 10:04:13;;;;;;;2.40;2.20;;;;;;;33.68;36.49;160060.78;4973930;28;20464;-84
2022/08/03 10:06:40;;;;;;;2.03;1.70;;;;;;;33.93;35.04;160123.91;4975463;28;20472;-84
2022/08/03 10:09:11;;;;;;;2.40;2.03;;;;;;;33.78;33.57;160085.78;4996998;28;20449;-84
2022/08/03 10:11:38;;;;;;;2.30;2.10;;;;;;;33.55;34.04;160025.19;4990751;28;20456;-84
2022/08/03 10:14:08;;;;;;;2.07;1.83;;;;;;;33.70;35.06;160066.03;4989314;28;20805;-84
2022/08/03 10:16:38;;;;;;;2.47;2.27;;;;;;;33.59;34.63;160037.13;4994487;28;20433;-84
2022/08/03 10:19:06;;;;;;;3.20;2.63;;;;;;;33.04;35.04;159893.69;4990614;28;20453;-84
2022/08/03 10:21:34;;;;;;;2.10;2.00;;;;;;;32.72;35.88;159809.53;5006016;28;20452;-84
2022/08/03 10:24:03;;;;;;;2.30;2.10;;;;;;;32.82;34.87;159835.81;4989497;28;20448;-84
2022/08/03 10:26:31;;;;;;;2.87;2.67;;;;;;;32.85;35.08;159843.72;4989941;28;20472;-84
2022/08/03 10:29:01;;;;;;;2.90;2.37;;;;;;;33.02;35.24;159887.06;4972692;28;21040;-84
2022/08/03 10:31:33;;;;;;;2.70;2.50;;;;;;;33.31;34.73;159962.13;4989199;28;20480;-84
2022/08/03 10:34:02;;;;;;;2.00;1.87;;;;;;;33.57;32.95;160031.81;4989457;28;20511;-84
2022/08/03 10:36:31;;;;;;;2.77;2.57;;;;;;;33.09;33.41;159905.56;4988235;28;20533;-83
2022/08/03 10:38:59;;;;;;;2.97;2.47;;;;;;;32.87;34.02;159848.97;4986784;28;20493;-84
2022/08/03 10:41:27;;;;;;;2.93;2.23;;;;;;;32.65;34.25;159789.78;4987905;28;20927;-84
2022/08/03 10:44:03;;;;;;;2.57;2.37;;;;;;;32.77;35.54;159821.38;5005185;28;20469;-84
2022/08/03 10:46:30;;;;;;;2.33;2.13;;;;;;;32.84;34.72;159841.06;4986915;28;20901;-84
2022/08/03 10:48:57;;;;;;;2.47;2.27;;;;;;;33.06;34.98;159897.66;4988562;28;20532;-84
2022/08/03 10:51:30;;;;;;;3.30;2.27;;;;;;;32.70;34.11;159802.97;4989849;28;20799;-84
2022/08/03 10:53:57;;;;;;;3.33;2.57;;;;;;;32.77;34.03;159821.38;4989805;28;20508;-84
2022/08/03 11:00:00;;;;;;;2.83;2.63;;;;;;;32.29;36.06;159696.44;4983441;28;20453;-84
2022/08/03 11:03:07;;;;;;;2.70;2.50;;;;;;;32.30;35.85;159700.34;4994272;28;20441;-83
2022/08/03 11:05:36;;;;;;;2.67;2.47;;;;;;;31.88;36.41;159589.91;4993132;28;20469;-83
2022/08/03 11:08:24;;;;;;;3.60;2.93;;;;;;;31.57;36.45;159508.47;5006574;28;20499;-82
2022/08/03 11:10:53;;;;;;;2.60;2.40;;;;;;;31.49;38.24;159487.44;5006559;28;20477;-82
2022/08/03 11:13:21;;;;;;;3.03;2.50;;;;;;;31.28;38.03;159434.88;4993084;28;20973;-83
2022/08/03 11:15:49;;;;;;;4.10;2.60;;;;;;;31.09;38.02;159383.63;4993268;28;20499;-82
2022/08/03 11:18:16;;;;;;;2.70;2.50;;;;;;;31.00;38.27;159361.34;5003767;28;20868;-83
2022/08/03 11:20:48;;;;;;;2.87;2.50;;;;;;;31.31;38.74;159441.44;4997225;28;20484;-82
2022/08/03 11:23:15;;;;;;;3.17;2.50;;;;;;;31.61;37.04;159519.00;4994081;28;20536;-82
2022/08/03 11:26:16;;;;;;;3.00;2.80;;;;;;;31.84;37.66;159580.75;4973145;28;20485;-82
2022/08/03 11:28:44;;;;;;;3.33;3.00;;;;;;;31.94;36.30;159605.69;4965111;28;20456;-82
2022/08/03 11:31:44;;;;;;;2.80;2.60;;;;;;;31.95;36.92;159608.34;4997138;28;20890;-82
2022/08/03 11:34:12;;;;;;;3.20;2.90;;;;;;;31.88;36.44;159589.91;4989236;28;20465;-83
2022/08/03 11:37:12;;;;;;;2.93;2.73;;;;;;;31.84;37.59;159579.44;4993540;28;20795;-82
2022/08/03 11:39:39;;;;;;;3.00;2.70;;;;;;;31.72;37.02;159547.91;4991752;28;20563;-83
2022/08/03 11:42:43;;;;;;;4.23;2.60;;;;;;;31.46;37.57;159480.88;4976440;28;20530;-83
2022/08/03 11:45:11;;;;;;;3.07;2.77;;;;;;;31.21;38.42;159416.50;4992298;28;20842;-83